Hlavní strana
METAR-TAF:

METAR-TAF

Letiště :

Florești, Moldavsko

zeměpisná šířka: 47-51-45N, zeměpisná délka: 028-12-45E, výška: 101 m

METAR: chybějící

Čas: 16:22 (14:22 UTC)

Předpověď počasí

Zpráva byla vytvořena před 27 hodinami a 2 minutami, v 11:20 UTC
Předpověď platná od 24 v 12 UTC do 24 v 21 UTC
Západoseverozápadní vítr 10 kt
Viditelnost 10 km a více
Polojasno ve výšce 4000 ft

TAF: LUBM 241120Z 2412/2421 30010KT 9999 SCT040

Stav a předpovědi počasí z více než 4 000 letišť (zprávy METAR a TAF).

Červené a žluté tečky na mapě představují dostupné meteorologické stanice.

Když kurzor umístíte na tečku, zobrazí se název stanice.

Pak kliknutím zobrazíte stav a předpověď počasí.

Chcete-li změnit mapu, kliknutím na zelené tlačítko se znaménkem +mapu přiblížíte, kliknutím na zelené tlačítko se znaménkem – mapu oddálíte a kliknutím na zelené šipky přejdete na sousední mapy.


METAR-TAF: